sensor_id;sensor_type;location;lat;lon;timestamp;P1;durP1;ratioP1;P2;durP2;ratioP2
8683;SDS011;4379;59.744;18.206;2023-01-29T00:02:16;2.37;;;1.87;;
8683;SDS011;4379;59.744;18.206;2023-01-29T00:04:44;2.23;;;1.70;;
8683;SDS011;4379;59.744;18.206;2023-01-29T00:07:11;2.67;;;1.70;;
8683;SDS011;4379;59.744;18.206;2023-01-29T00:09:39;5.83;;;2.00;;
8683;SDS011;4379;59.744;18.206;2023-01-29T00:12:06;2.63;;;1.90;;
8683;SDS011;4379;59.744;18.206;2023-01-29T00:14:36;1.90;;;1.50;;
8683;SDS011;4379;59.744;18.206;2023-01-29T00:17:04;5.53;;;2.00;;
8683;SDS011;4379;59.744;18.206;2023-01-29T00:19:31;5.57;;;1.93;;
8683;SDS011;4379;59.744;18.206;2023-01-29T00:21:58;3.37;;;1.50;;
8683;SDS011;4379;59.744;18.206;2023-01-29T00:24:26;2.77;;;1.90;;
8683;SDS011;4379;59.744;18.206;2023-01-29T00:26:53;3.43;;;1.53;;
8683;SDS011;4379;59.744;18.206;2023-01-29T00:29:20;5.27;;;2.50;;
8683;SDS011;4379;59.744;18.206;2023-01-29T00:31:47;1.73;;;1.63;;
8683;SDS011;4379;59.744;18.206;2023-01-29T00:34:15;4.37;;;2.10;;
8683;SDS011;4379;59.744;18.206;2023-01-29T00:36:42;2.50;;;1.77;;
8683;SDS011;4379;59.744;18.206;2023-01-29T00:39:11;4.13;;;2.30;;
8683;SDS011;4379;59.744;18.206;2023-01-29T00:41:38;4.37;;;2.00;;
8683;SDS011;4379;59.744;18.206;2023-01-29T00:44:23;4.90;;;2.60;;
8683;SDS011;4379;59.744;18.206;2023-01-29T00:47:10;3.13;;;1.90;;
8683;SDS011;4379;59.744;18.206;2023-01-29T00:49:56;2.93;;;1.90;;
8683;SDS011;4379;59.744;18.206;2023-01-29T00:52:23;4.47;;;1.87;;
8683;SDS011;4379;59.744;18.206;2023-01-29T00:54:51;3.83;;;2.13;;
8683;SDS011;4379;59.744;18.206;2023-01-29T00:57:20;4.33;;;2.27;;
8683;SDS011;4379;59.744;18.206;2023-01-29T00:59:48;5.33;;;2.43;;
8683;SDS011;4379;59.744;18.206;2023-01-29T01:02:15;5.03;;;2.30;;
8683;SDS011;4379;59.744;18.206;2023-01-29T01:05:01;2.27;;;2.07;;
8683;SDS011;4379;59.744;18.206;2023-01-29T01:07:29;4.97;;;2.40;;
8683;SDS011;4379;59.744;18.206;2023-01-29T01:09:56;6.10;;;2.30;;
8683;SDS011;4379;59.744;18.206;2023-01-29T01:12:43;5.73;;;2.10;;
8683;SDS011;4379;59.744;18.206;2023-01-29T01:15:10;3.23;;;2.20;;
8683;SDS011;4379;59.744;18.206;2023-01-29T01:17:38;4.40;;;2.10;;
8683;SDS011;4379;59.744;18.206;2023-01-29T01:20:05;3.07;;;2.50;;
8683;SDS011;4379;59.744;18.206;2023-01-29T01:22:33;2.77;;;2.10;;
8683;SDS011;4379;59.744;18.206;2023-01-29T01:25:01;3.63;;;1.90;;
8683;SDS011;4379;59.744;18.206;2023-01-29T01:27:28;5.20;;;2.33;;
8683;SDS011;4379;59.744;18.206;2023-01-29T01:29:55;2.57;;;2.00;;
8683;SDS011;4379;59.744;18.206;2023-01-29T01:32:23;4.17;;;2.27;;
8683;SDS011;4379;59.744;18.206;2023-01-29T01:34:51;3.53;;;2.13;;
8683;SDS011;4379;59.744;18.206;2023-01-29T01:37:19;4.17;;;2.27;;
8683;SDS011;4379;59.744;18.206;2023-01-29T01:39:46;2.97;;;1.80;;
8683;SDS011;4379;59.744;18.206;2023-01-29T01:42:14;2.00;;;1.80;;
8683;SDS011;4379;59.744;18.206;2023-01-29T01:44:52;2.57;;;1.90;;
8683;SDS011;4379;59.744;18.206;2023-01-29T01:47:42;3.30;;;1.63;;
8683;SDS011;4379;59.744;18.206;2023-01-29T01:50:33;4.70;;;1.80;;
8683;SDS011;4379;59.744;18.206;2023-01-29T01:53:08;2.80;;;1.67;;
8683;SDS011;4379;59.744;18.206;2023-01-29T01:55:41;4.13;;;2.00;;
8683;SDS011;4379;59.744;18.206;2023-01-29T01:58:17;3.93;;;1.90;;
8683;SDS011;4379;59.744;18.206;2023-01-29T02:00:51;2.90;;;1.70;;
8683;SDS011;4379;59.744;18.206;2023-01-29T02:03:19;4.23;;;2.10;;
8683;SDS011;4379;59.744;18.206;2023-01-29T02:06:07;1.97;;;1.53;;
8683;SDS011;4379;59.744;18.206;2023-01-29T02:08:57;2.93;;;1.77;;
8683;SDS011;4379;59.744;18.206;2023-01-29T02:11:50;2.97;;;1.77;;
8683;SDS011;4379;59.744;18.206;2023-01-29T02:14:17;1.73;;;1.60;;
8683;SDS011;4379;59.744;18.206;2023-01-29T02:16:44;1.53;;;1.40;;
8683;SDS011;4379;59.744;18.206;2023-01-29T02:19:21;4.17;;;1.83;;
8683;SDS011;4379;59.744;18.206;2023-01-29T02:27:40;2.10;;;1.80;;
8683;SDS011;4379;59.744;18.206;2023-01-29T02:30:22;3.10;;;1.60;;
8683;SDS011;4379;59.744;18.206;2023-01-29T02:33:04;4.00;;;1.80;;
8683;SDS011;4379;59.744;18.206;2023-01-29T02:36:03;1.67;;;1.57;;
8683;SDS011;4379;59.744;18.206;2023-01-29T02:38:49;3.37;;;1.80;;
8683;SDS011;4379;59.744;18.206;2023-01-29T02:44:41;2.23;;;1.60;;
8683;SDS011;4379;59.744;18.206;2023-01-29T02:47:21;2.97;;;1.70;;
8683;SDS011;4379;59.744;18.206;2023-01-29T02:50:14;2.17;;;1.60;;
8683;SDS011;4379;59.744;18.206;2023-01-29T02:53:19;1.93;;;1.30;;
8683;SDS011;4379;59.744;18.206;2023-01-29T02:56:01;1.80;;;1.70;;
8683;SDS011;4379;59.744;18.206;2023-01-29T02:58:38;3.80;;;1.60;;
8683;SDS011;4379;59.744;18.206;2023-01-29T03:01:18;2.17;;;1.53;;
8683;SDS011;4379;59.744;18.206;2023-01-29T03:03:52;2.27;;;1.60;;
8683;SDS011;4379;59.744;18.206;2023-01-29T03:06:29;1.73;;;1.50;;
8683;SDS011;4379;59.744;18.206;2023-01-29T03:09:10;2.03;;;1.60;;
8683;SDS011;4379;59.744;18.206;2023-01-29T03:11:45;1.33;;;1.20;;
8683;SDS011;4379;59.744;18.206;2023-01-29T03:14:21;2.30;;;1.70;;
8683;SDS011;4379;59.744;18.206;2023-01-29T03:17:16;4.00;;;1.90;;
8683;SDS011;4379;59.744;18.206;2023-01-29T03:19:45;3.37;;;1.63;;
8683;SDS011;4379;59.744;18.206;2023-01-29T03:22:14;2.67;;;1.60;;
8683;SDS011;4379;59.744;18.206;2023-01-29T03:27:54;2.97;;;1.50;;
8683;SDS011;4379;59.744;18.206;2023-01-29T03:30:44;1.93;;;1.40;;
8683;SDS011;4379;59.744;18.206;2023-01-29T03:33:34;2.20;;;1.57;;
8683;SDS011;4379;59.744;18.206;2023-01-29T03:36:15;1.57;;;1.37;;
8683;SDS011;4379;59.744;18.206;2023-01-29T03:39:07;2.57;;;1.50;;
8683;SDS011;4379;59.744;18.206;2023-01-29T03:41:37;1.60;;;1.50;;
8683;SDS011;4379;59.744;18.206;2023-01-29T03:44:26;4.93;;;1.80;;
8683;SDS011;4379;59.744;18.206;2023-01-29T03:50:08;2.27;;;1.70;;
8683;SDS011;4379;59.744;18.206;2023-01-29T03:56:01;2.63;;;1.50;;
8683;SDS011;4379;59.744;18.206;2023-01-29T03:58:36;2.40;;;1.63;;
8683;SDS011;4379;59.744;18.206;2023-01-29T04:01:23;5.23;;;1.53;;
8683;SDS011;4379;59.744;18.206;2023-01-29T04:04:00;2.50;;;1.50;;
8683;SDS011;4379;59.744;18.206;2023-01-29T04:06:35;2.13;;;1.43;;
8683;SDS011;4379;59.744;18.206;2023-01-29T04:09:11;2.73;;;1.60;;
8683;SDS011;4379;59.744;18.206;2023-01-29T04:11:49;3.67;;;1.93;;
8683;SDS011;4379;59.744;18.206;2023-01-29T04:14:22;3.07;;;1.67;;
8683;SDS011;4379;59.744;18.206;2023-01-29T04:16:51;1.70;;;1.60;;
8683;SDS011;4379;59.744;18.206;2023-01-29T04:19:21;4.17;;;1.63;;
8683;SDS011;4379;59.744;18.206;2023-01-29T04:21:49;2.97;;;1.83;;
8683;SDS011;4379;59.744;18.206;2023-01-29T04:24:27;3.23;;;1.67;;
8683;SDS011;4379;59.744;18.206;2023-01-29T04:32:09;2.87;;;1.77;;
8683;SDS011;4379;59.744;18.206;2023-01-29T04:40:19;2.63;;;1.70;;
8683;SDS011;4379;59.744;18.206;2023-01-29T04:42:48;4.07;;;1.93;;
8683;SDS011;4379;59.744;18.206;2023-01-29T04:52:14;3.43;;;2.13;;
8683;SDS011;4379;59.744;18.206;2023-01-29T04:54:15;2.53;;;1.90;;
8683;SDS011;4379;59.744;18.206;2023-01-29T04:57:01;2.37;;;1.60;;
8683;SDS011;4379;59.744;18.206;2023-01-29T04:59:33;3.73;;;1.90;;
8683;SDS011;4379;59.744;18.206;2023-01-29T05:02:04;2.30;;;1.83;;
8683;SDS011;4379;59.744;18.206;2023-01-29T05:04:33;4.03;;;1.97;;
8683;SDS011;4379;59.744;18.206;2023-01-29T05:07:04;6.87;;;2.20;;
8683;SDS011;4379;59.744;18.206;2023-01-29T05:09:34;4.27;;;2.00;;
8683;SDS011;4379;59.744;18.206;2023-01-29T05:12:05;3.00;;;2.10;;
8683;SDS011;4379;59.744;18.206;2023-01-29T05:14:34;4.07;;;2.10;;
8683;SDS011;4379;59.744;18.206;2023-01-29T05:17:07;5.20;;;2.20;;
8683;SDS011;4379;59.744;18.206;2023-01-29T05:19:38;3.97;;;2.17;;
8683;SDS011;4379;59.744;18.206;2023-01-29T05:22:06;2.53;;;1.87;;
8683;SDS011;4379;59.744;18.206;2023-01-29T05:24:36;3.73;;;2.53;;
8683;SDS011;4379;59.744;18.206;2023-01-29T05:27:04;3.40;;;2.27;;
8683;SDS011;4379;59.744;18.206;2023-01-29T05:29:50;2.83;;;2.43;;
8683;SDS011;4379;59.744;18.206;2023-01-29T05:32:18;5.40;;;2.40;;
8683;SDS011;4379;59.744;18.206;2023-01-29T05:34:45;6.23;;;2.73;;
8683;SDS011;4379;59.744;18.206;2023-01-29T05:37:12;2.60;;;2.30;;
8683;SDS011;4379;59.744;18.206;2023-01-29T05:39:39;4.00;;;3.27;;
8683;SDS011;4379;59.744;18.206;2023-01-29T05:42:06;2.53;;;2.30;;
8683;SDS011;4379;59.744;18.206;2023-01-29T05:44:34;3.87;;;2.47;;
8683;SDS011;4379;59.744;18.206;2023-01-29T05:47:01;8.63;;;2.90;;
8683;SDS011;4379;59.744;18.206;2023-01-29T05:49:28;5.87;;;2.70;;
8683;SDS011;4379;59.744;18.206;2023-01-29T05:51:55;3.67;;;2.70;;
8683;SDS011;4379;59.744;18.206;2023-01-29T05:54:23;4.87;;;2.83;;
8683;SDS011;4379;59.744;18.206;2023-01-29T05:56:50;5.40;;;2.87;;
8683;SDS011;4379;59.744;18.206;2023-01-29T05:59:17;6.90;;;3.30;;
8683;SDS011;4379;59.744;18.206;2023-01-29T06:01:45;4.50;;;2.60;;
8683;SDS011;4379;59.744;18.206;2023-01-29T06:04:12;4.97;;;2.80;;
8683;SDS011;4379;59.744;18.206;2023-01-29T06:06:39;3.80;;;2.30;;
8683;SDS011;4379;59.744;18.206;2023-01-29T06:09:08;3.47;;;3.17;;
8683;SDS011;4379;59.744;18.206;2023-01-29T06:11:36;4.37;;;3.20;;
8683;SDS011;4379;59.744;18.206;2023-01-29T06:14:03;5.43;;;2.87;;
8683;SDS011;4379;59.744;18.206;2023-01-29T06:16:31;5.43;;;2.90;;
8683;SDS011;4379;59.744;18.206;2023-01-29T06:18:58;5.97;;;3.43;;
8683;SDS011;4379;59.744;18.206;2023-01-29T06:21:25;5.73;;;3.70;;
8683;SDS011;4379;59.744;18.206;2023-01-29T06:23:53;5.67;;;3.10;;
8683;SDS011;4379;59.744;18.206;2023-01-29T06:26:20;6.37;;;3.37;;
8683;SDS011;4379;59.744;18.206;2023-01-29T06:28:48;4.20;;;3.00;;
8683;SDS011;4379;59.744;18.206;2023-01-29T06:31:16;4.73;;;2.83;;
8683;SDS011;4379;59.744;18.206;2023-01-29T06:34:04;5.77;;;3.60;;
8683;SDS011;4379;59.744;18.206;2023-01-29T06:36:32;7.87;;;3.40;;
8683;SDS011;4379;59.744;18.206;2023-01-29T06:39:01;6.30;;;3.57;;
8683;SDS011;4379;59.744;18.206;2023-01-29T06:41:29;7.37;;;3.63;;
8683;SDS011;4379;59.744;18.206;2023-01-29T06:43:56;5.70;;;3.30;;
8683;SDS011;4379;59.744;18.206;2023-01-29T06:46:24;7.70;;;3.63;;
8683;SDS011;4379;59.744;18.206;2023-01-29T06:48:52;6.47;;;3.40;;
8683;SDS011;4379;59.744;18.206;2023-01-29T06:51:19;10.20;;;3.40;;
8683;SDS011;4379;59.744;18.206;2023-01-29T06:53:48;5.53;;;3.63;;
8683;SDS011;4379;59.744;18.206;2023-01-29T06:56:15;6.27;;;4.40;;
8683;SDS011;4379;59.744;18.206;2023-01-29T06:58:43;7.13;;;4.07;;
8683;SDS011;4379;59.744;18.206;2023-01-29T07:01:10;5.53;;;4.10;;
8683;SDS011;4379;59.744;18.206;2023-01-29T07:03:58;5.47;;;3.93;;
8683;SDS011;4379;59.744;18.206;2023-01-29T07:06:29;6.47;;;4.03;;
8683;SDS011;4379;59.744;18.206;2023-01-29T07:08:56;5.73;;;4.90;;
8683;SDS011;4379;59.744;18.206;2023-01-29T07:11:24;6.20;;;4.23;;
8683;SDS011;4379;59.744;18.206;2023-01-29T07:13:51;6.57;;;4.40;;
8683;SDS011;4379;59.744;18.206;2023-01-29T07:16:19;6.87;;;4.40;;
8683;SDS011;4379;59.744;18.206;2023-01-29T07:18:46;5.93;;;4.23;;
8683;SDS011;4379;59.744;18.206;2023-01-29T07:21:14;5.23;;;4.17;;
8683;SDS011;4379;59.744;18.206;2023-01-29T07:23:41;6.27;;;4.47;;
8683;SDS011;4379;59.744;18.206;2023-01-29T07:26:08;6.57;;;4.80;;
8683;SDS011;4379;59.744;18.206;2023-01-29T07:28:37;6.33;;;4.07;;
8683;SDS011;4379;59.744;18.206;2023-01-29T07:31:05;4.80;;;4.40;;
8683;SDS011;4379;59.744;18.206;2023-01-29T07:33:34;9.50;;;4.40;;
8683;SDS011;4379;59.744;18.206;2023-01-29T07:36:01;6.10;;;4.33;;
8683;SDS011;4379;59.744;18.206;2023-01-29T07:38:33;8.83;;;4.77;;
8683;SDS011;4379;59.744;18.206;2023-01-29T07:41:01;5.47;;;4.37;;
8683;SDS011;4379;59.744;18.206;2023-01-29T07:43:28;5.03;;;4.03;;
8683;SDS011;4379;59.744;18.206;2023-01-29T07:46:00;6.57;;;4.23;;
8683;SDS011;4379;59.744;18.206;2023-01-29T07:48:28;10.03;;;4.50;;
8683;SDS011;4379;59.744;18.206;2023-01-29T07:50:56;6.63;;;4.03;;
8683;SDS011;4379;59.744;18.206;2023-01-29T07:53:24;8.57;;;4.20;;
8683;SDS011;4379;59.744;18.206;2023-01-29T07:55:52;6.03;;;3.77;;
8683;SDS011;4379;59.744;18.206;2023-01-29T07:58:20;4.90;;;3.83;;
8683;SDS011;4379;59.744;18.206;2023-01-29T08:00:47;3.67;;;3.27;;
8683;SDS011;4379;59.744;18.206;2023-01-29T08:03:16;4.07;;;3.30;;
8683;SDS011;4379;59.744;18.206;2023-01-29T08:05:46;5.20;;;3.63;;
8683;SDS011;4379;59.744;18.206;2023-01-29T08:08:13;5.30;;;3.57;;
8683;SDS011;4379;59.744;18.206;2023-01-29T08:10:41;4.80;;;3.30;;
8683;SDS011;4379;59.744;18.206;2023-01-29T08:13:08;7.07;;;3.50;;
8683;SDS011;4379;59.744;18.206;2023-01-29T08:15:36;7.87;;;3.40;;
8683;SDS011;4379;59.744;18.206;2023-01-29T08:18:05;4.70;;;3.40;;
8683;SDS011;4379;59.744;18.206;2023-01-29T08:20:32;3.93;;;3.50;;
8683;SDS011;4379;59.744;18.206;2023-01-29T08:23:00;4.10;;;3.20;;
8683;SDS011;4379;59.744;18.206;2023-01-29T08:25:29;3.20;;;2.90;;
8683;SDS011;4379;59.744;18.206;2023-01-29T08:27:57;4.37;;;3.20;;
8683;SDS011;4379;59.744;18.206;2023-01-29T08:30:27;5.13;;;3.10;;
8683;SDS011;4379;59.744;18.206;2023-01-29T08:32:56;4.30;;;3.30;;
8683;SDS011;4379;59.744;18.206;2023-01-29T08:35:24;5.63;;;3.60;;
8683;SDS011;4379;59.744;18.206;2023-01-29T08:37:55;3.97;;;3.27;;
8683;SDS011;4379;59.744;18.206;2023-01-29T08:40:28;7.13;;;3.60;;
8683;SDS011;4379;59.744;18.206;2023-01-29T08:42:58;3.37;;;3.00;;
8683;SDS011;4379;59.744;18.206;2023-01-29T08:45:33;2.70;;;2.50;;
8683;SDS011;4379;59.744;18.206;2023-01-29T08:48:02;4.03;;;2.70;;
8683;SDS011;4379;59.744;18.206;2023-01-29T08:50:30;4.67;;;3.10;;
8683;SDS011;4379;59.744;18.206;2023-01-29T08:53:00;2.93;;;2.63;;
8683;SDS011;4379;59.744;18.206;2023-01-29T08:55:29;3.97;;;2.40;;
8683;SDS011;4379;59.744;18.206;2023-01-29T08:57:57;4.70;;;2.80;;
8683;SDS011;4379;59.744;18.206;2023-01-29T09:00:24;4.27;;;2.73;;
8683;SDS011;4379;59.744;18.206;2023-01-29T09:02:52;2.60;;;2.07;;
8683;SDS011;4379;59.744;18.206;2023-01-29T09:05:19;3.30;;;2.40;;
8683;SDS011;4379;59.744;18.206;2023-01-29T09:07:47;3.27;;;2.57;;
8683;SDS011;4379;59.744;18.206;2023-01-29T09:10:15;4.33;;;2.57;;
8683;SDS011;4379;59.744;18.206;2023-01-29T09:12:42;7.03;;;2.90;;
8683;SDS011;4379;59.744;18.206;2023-01-29T09:15:10;4.83;;;2.60;;
8683;SDS011;4379;59.744;18.206;2023-01-29T09:17:37;2.80;;;2.30;;
8683;SDS011;4379;59.744;18.206;2023-01-29T09:20:06;3.30;;;2.80;;
8683;SDS011;4379;59.744;18.206;2023-01-29T09:22:34;3.30;;;2.40;;
8683;SDS011;4379;59.744;18.206;2023-01-29T09:25:02;5.57;;;2.33;;
8683;SDS011;4379;59.744;18.206;2023-01-29T09:27:29;5.60;;;2.23;;
8683;SDS011;4379;59.744;18.206;2023-01-29T09:29:57;3.53;;;2.30;;
8683;SDS011;4379;59.744;18.206;2023-01-29T09:32:24;2.80;;;2.33;;
8683;SDS011;4379;59.744;18.206;2023-01-29T09:35:12;5.50;;;2.10;;
8683;SDS011;4379;59.744;18.206;2023-01-29T09:37:39;2.53;;;2.00;;
8683;SDS011;4379;59.744;18.206;2023-01-29T09:40:09;4.53;;;2.17;;
8683;SDS011;4379;59.744;18.206;2023-01-29T09:42:49;4.47;;;2.33;;
8683;SDS011;4379;59.744;18.206;2023-01-29T09:45:28;5.23;;;2.17;;
8683;SDS011;4379;59.744;18.206;2023-01-29T09:48:01;2.57;;;1.70;;
8683;SDS011;4379;59.744;18.206;2023-01-29T09:50:40;4.27;;;2.07;;
8683;SDS011;4379;59.744;18.206;2023-01-29T09:56:02;2.07;;;1.77;;
8683;SDS011;4379;59.744;18.206;2023-01-29T09:58:36;2.33;;;1.80;;
8683;SDS011;4379;59.744;18.206;2023-01-29T10:01:44;3.67;;;2.30;;
8683;SDS011;4379;59.744;18.206;2023-01-29T10:26:43;2.57;;;1.63;;
8683;SDS011;4379;59.744;18.206;2023-01-29T10:29:13;4.27;;;2.13;;
8683;SDS011;4379;59.744;18.206;2023-01-29T10:31:45;3.30;;;2.27;;
8683;SDS011;4379;59.744;18.206;2023-01-29T10:37:05;4.57;;;3.73;;
8683;SDS011;4379;59.744;18.206;2023-01-29T10:39:51;14.43;;;10.67;;
8683;SDS011;4379;59.744;18.206;2023-01-29T10:42:25;3.03;;;2.57;;
8683;SDS011;4379;59.744;18.206;2023-01-29T10:58:49;2.73;;;1.60;;
8683;SDS011;4379;59.744;18.206;2023-01-29T11:01:20;4.10;;;1.60;;
8683;SDS011;4379;59.744;18.206;2023-01-29T11:03:55;2.47;;;1.47;;
8683;SDS011;4379;59.744;18.206;2023-01-29T11:06:31;2.40;;;1.50;;
8683;SDS011;4379;59.744;18.206;2023-01-29T11:11:59;1.90;;;1.30;;
8683;SDS011;4379;59.744;18.206;2023-01-29T11:17:22;1.67;;;1.27;;
8683;SDS011;4379;59.744;18.206;2023-01-29T11:19:51;4.63;;;2.00;;
8683;SDS011;4379;59.744;18.206;2023-01-29T11:22:24;2.40;;;1.30;;
8683;SDS011;4379;59.744;18.206;2023-01-29T11:27:55;2.20;;;1.60;;
8683;SDS011;4379;59.744;18.206;2023-01-29T11:30:34;1.97;;;1.30;;
8683;SDS011;4379;59.744;18.206;2023-01-29T11:35:54;4.37;;;1.30;;
8683;SDS011;4379;59.744;18.206;2023-01-29T11:38:24;2.97;;;1.37;;
8683;SDS011;4379;59.744;18.206;2023-01-29T11:41:14;1.47;;;1.30;;
8683;SDS011;4379;59.744;18.206;2023-01-29T11:43:47;2.37;;;1.10;;
8683;SDS011;4379;59.744;18.206;2023-01-29T11:46:15;2.20;;;1.40;;
8683;SDS011;4379;59.744;18.206;2023-01-29T11:48:43;3.20;;;1.60;;
8683;SDS011;4379;59.744;18.206;2023-01-29T11:51:26;2.83;;;1.50;;
8683;SDS011;4379;59.744;18.206;2023-01-29T11:53:55;1.93;;;1.50;;
8683;SDS011;4379;59.744;18.206;2023-01-29T11:56:40;4.60;;;1.67;;
8683;SDS011;4379;59.744;18.206;2023-01-29T11:59:53;2.77;;;1.83;;
8683;SDS011;4379;59.744;18.206;2023-01-29T12:04:43;3.50;;;1.70;;
8683;SDS011;4379;59.744;18.206;2023-01-29T12:07:15;4.07;;;1.40;;
8683;SDS011;4379;59.744;18.206;2023-01-29T12:09:51;2.93;;;1.17;;
8683;SDS011;4379;59.744;18.206;2023-01-29T12:17:44;3.47;;;1.40;;
8683;SDS011;4379;59.744;18.206;2023-01-29T12:20:38;3.37;;;1.20;;
8683;SDS011;4379;59.744;18.206;2023-01-29T12:26:07;4.57;;;1.80;;
8683;SDS011;4379;59.744;18.206;2023-01-29T12:28:58;4.83;;;1.50;;
8683;SDS011;4379;59.744;18.206;2023-01-29T12:32:06;1.63;;;1.30;;
8683;SDS011;4379;59.744;18.206;2023-01-29T12:37:23;3.27;;;1.40;;
8683;SDS011;4379;59.744;18.206;2023-01-29T12:39:57;2.70;;;1.47;;
8683;SDS011;4379;59.744;18.206;2023-01-29T12:42:25;3.67;;;2.00;;
8683;SDS011;4379;59.744;18.206;2023-01-29T12:44:57;3.73;;;1.90;;
8683;SDS011;4379;59.744;18.206;2023-01-29T12:48:10;4.23;;;1.67;;
8683;SDS011;4379;59.744;18.206;2023-01-29T12:50:28;3.97;;;1.90;;
8683;SDS011;4379;59.744;18.206;2023-01-29T12:55:50;2.70;;;1.90;;
8683;SDS011;4379;59.744;18.206;2023-01-29T12:58:34;4.53;;;1.83;;
8683;SDS011;4379;59.744;18.206;2023-01-29T13:01:19;4.53;;;1.90;;
8683;SDS011;4379;59.744;18.206;2023-01-29T13:03:54;4.13;;;1.60;;
8683;SDS011;4379;59.744;18.206;2023-01-29T13:06:30;5.97;;;2.10;;
8683;SDS011;4379;59.744;18.206;2023-01-29T13:09:08;6.07;;;2.07;;
8683;SDS011;4379;59.744;18.206;2023-01-29T13:11:46;2.70;;;1.53;;
8683;SDS011;4379;59.744;18.206;2023-01-29T13:17:13;4.07;;;1.60;;
8683;SDS011;4379;59.744;18.206;2023-01-29T13:19:45;4.23;;;1.57;;
8683;SDS011;4379;59.744;18.206;2023-01-29T13:22:23;2.60;;;1.47;;
8683;SDS011;4379;59.744;18.206;2023-01-29T13:24:57;3.67;;;1.50;;
8683;SDS011;4379;59.744;18.206;2023-01-29T13:27:32;3.93;;;2.07;;
8683;SDS011;4379;59.744;18.206;2023-01-29T13:30:01;4.33;;;2.17;;
8683;SDS011;4379;59.744;18.206;2023-01-29T13:32:30;2.70;;;1.47;;
8683;SDS011;4379;59.744;18.206;2023-01-29T13:35:05;4.07;;;1.83;;
8683;SDS011;4379;59.744;18.206;2023-01-29T13:37:48;4.60;;;1.97;;
8683;SDS011;4379;59.744;18.206;2023-01-29T13:40:24;4.73;;;1.80;;
8683;SDS011;4379;59.744;18.206;2023-01-29T13:42:54;3.83;;;1.57;;
8683;SDS011;4379;59.744;18.206;2023-01-29T13:45:35;3.57;;;1.60;;
8683;SDS011;4379;59.744;18.206;2023-01-29T13:48:16;3.73;;;1.40;;
8683;SDS011;4379;59.744;18.206;2023-01-29T13:51:00;4.83;;;1.77;;
8683;SDS011;4379;59.744;18.206;2023-01-29T13:58:56;4.73;;;2.03;;
8683;SDS011;4379;59.744;18.206;2023-01-29T14:04:19;5.33;;;1.87;;
8683;SDS011;4379;59.744;18.206;2023-01-29T14:06:54;6.60;;;1.53;;
8683;SDS011;4379;59.744;18.206;2023-01-29T14:12:49;4.77;;;2.13;;
8683;SDS011;4379;59.744;18.206;2023-01-29T14:14:59;4.80;;;2.10;;
8683;SDS011;4379;59.744;18.206;2023-01-29T14:17:32;1.97;;;1.27;;
8683;SDS011;4379;59.744;18.206;2023-01-29T14:20:16;4.53;;;1.63;;
8683;SDS011;4379;59.744;18.206;2023-01-29T14:22:53;2.67;;;1.23;;
8683;SDS011;4379;59.744;18.206;2023-01-29T14:25:26;8.07;;;1.93;;
8683;SDS011;4379;59.744;18.206;2023-01-29T14:27:57;5.90;;;1.50;;
8683;SDS011;4379;59.744;18.206;2023-01-29T14:30:29;3.03;;;1.30;;
8683;SDS011;4379;59.744;18.206;2023-01-29T14:32:58;3.27;;;1.87;;
8683;SDS011;4379;59.744;18.206;2023-01-29T14:35:28;3.83;;;1.50;;
8683;SDS011;4379;59.744;18.206;2023-01-29T14:38:00;4.93;;;1.50;;
8683;SDS011;4379;59.744;18.206;2023-01-29T14:40:30;4.77;;;1.80;;
8683;SDS011;4379;59.744;18.206;2023-01-29T14:45:33;5.30;;;1.90;;
8683;SDS011;4379;59.744;18.206;2023-01-29T14:48:16;2.90;;;1.67;;
8683;SDS011;4379;59.744;18.206;2023-01-29T14:50:45;5.13;;;1.50;;
8683;SDS011;4379;59.744;18.206;2023-01-29T14:56:39;4.03;;;1.60;;
8683;SDS011;4379;59.744;18.206;2023-01-29T14:58:52;2.83;;;1.47;;
8683;SDS011;4379;59.744;18.206;2023-01-29T15:01:39;5.83;;;1.73;;
8683;SDS011;4379;59.744;18.206;2023-01-29T15:04:14;2.43;;;1.27;;
8683;SDS011;4379;59.744;18.206;2023-01-29T15:07:00;6.07;;;2.23;;
8683;SDS011;4379;59.744;18.206;2023-01-29T15:09:41;5.47;;;1.57;;
8683;SDS011;4379;59.744;18.206;2023-01-29T15:15:39;6.67;;;2.30;;
8683;SDS011;4379;59.744;18.206;2023-01-29T15:18:16;3.93;;;1.47;;
8683;SDS011;4379;59.744;18.206;2023-01-29T15:21:00;7.03;;;1.70;;
8683;SDS011;4379;59.744;18.206;2023-01-29T15:23:32;5.23;;;2.07;;
8683;SDS011;4379;59.744;18.206;2023-01-29T15:26:01;4.87;;;1.80;;
8683;SDS011;4379;59.744;18.206;2023-01-29T15:28:33;3.80;;;1.70;;
8683;SDS011;4379;59.744;18.206;2023-01-29T15:31:02;4.57;;;1.50;;
8683;SDS011;4379;59.744;18.206;2023-01-29T15:33:33;2.70;;;1.30;;
8683;SDS011;4379;59.744;18.206;2023-01-29T15:36:04;3.50;;;1.43;;
8683;SDS011;4379;59.744;18.206;2023-01-29T15:38:34;6.00;;;1.70;;
8683;SDS011;4379;59.744;18.206;2023-01-29T15:41:03;3.77;;;1.87;;
8683;SDS011;4379;59.744;18.206;2023-01-29T15:43:47;3.60;;;1.43;;
8683;SDS011;4379;59.744;18.206;2023-01-29T15:46:36;4.33;;;1.60;;
8683;SDS011;4379;59.744;18.206;2023-01-29T15:49:15;6.67;;;1.60;;
8683;SDS011;4379;59.744;18.206;2023-01-29T15:55:02;5.83;;;1.87;;
8683;SDS011;4379;59.744;18.206;2023-01-29T15:57:36;7.07;;;1.73;;
8683;SDS011;4379;59.744;18.206;2023-01-29T16:00:21;4.33;;;1.70;;
8683;SDS011;4379;59.744;18.206;2023-01-29T16:02:56;6.23;;;1.67;;
8683;SDS011;4379;59.744;18.206;2023-01-29T16:05:28;5.73;;;1.93;;
8683;SDS011;4379;59.744;18.206;2023-01-29T16:07:58;4.70;;;1.83;;
8683;SDS011;4379;59.744;18.206;2023-01-29T16:10:27;5.27;;;2.30;;
8683;SDS011;4379;59.744;18.206;2023-01-29T16:12:57;3.47;;;1.70;;
8683;SDS011;4379;59.744;18.206;2023-01-29T16:15:35;4.83;;;2.13;;
8683;SDS011;4379;59.744;18.206;2023-01-29T16:21:04;4.30;;;1.50;;
8683;SDS011;4379;59.744;18.206;2023-01-29T16:23:46;6.40;;;2.23;;
8683;SDS011;4379;59.744;18.206;2023-01-29T16:26:20;2.77;;;1.57;;
8683;SDS011;4379;59.744;18.206;2023-01-29T16:28:52;5.10;;;1.80;;
8683;SDS011;4379;59.744;18.206;2023-01-29T16:31:22;3.40;;;1.83;;
8683;SDS011;4379;59.744;18.206;2023-01-29T16:33:57;4.20;;;1.83;;
8683;SDS011;4379;59.744;18.206;2023-01-29T16:36:31;3.77;;;1.60;;
8683;SDS011;4379;59.744;18.206;2023-01-29T16:39:00;3.70;;;1.70;;
8683;SDS011;4379;59.744;18.206;2023-01-29T16:41:32;7.00;;;1.97;;
8683;SDS011;4379;59.744;18.206;2023-01-29T16:46:48;4.47;;;2.10;;
8683;SDS011;4379;59.744;18.206;2023-01-29T16:51:54;5.00;;;1.60;;
8683;SDS011;4379;59.744;18.206;2023-01-29T16:54:23;6.13;;;1.60;;
8683;SDS011;4379;59.744;18.206;2023-01-29T16:56:53;5.70;;;2.03;;
8683;SDS011;4379;59.744;18.206;2023-01-29T16:59:31;5.23;;;1.50;;
8683;SDS011;4379;59.744;18.206;2023-01-29T17:02:03;5.03;;;1.70;;
8683;SDS011;4379;59.744;18.206;2023-01-29T17:04:46;3.70;;;1.63;;
8683;SDS011;4379;59.744;18.206;2023-01-29T17:07:15;5.43;;;2.00;;
8683;SDS011;4379;59.744;18.206;2023-01-29T17:09:50;5.13;;;1.80;;
8683;SDS011;4379;59.744;18.206;2023-01-29T17:12:23;6.97;;;1.73;;
8683;SDS011;4379;59.744;18.206;2023-01-29T17:14:59;5.60;;;1.87;;
8683;SDS011;4379;59.744;18.206;2023-01-29T17:17:33;5.97;;;2.00;;
8683;SDS011;4379;59.744;18.206;2023-01-29T17:20:14;5.43;;;1.90;;
8683;SDS011;4379;59.744;18.206;2023-01-29T17:22:42;7.83;;;1.87;;
8683;SDS011;4379;59.744;18.206;2023-01-29T17:25:13;5.90;;;1.77;;
8683;SDS011;4379;59.744;18.206;2023-01-29T17:27:43;5.00;;;2.07;;
8683;SDS011;4379;59.744;18.206;2023-01-29T17:30:20;6.07;;;2.30;;
8683;SDS011;4379;59.744;18.206;2023-01-29T17:32:51;6.03;;;1.97;;
8683;SDS011;4379;59.744;18.206;2023-01-29T17:35:19;4.50;;;1.97;;
8683;SDS011;4379;59.744;18.206;2023-01-29T17:37:47;4.27;;;1.80;;
8683;SDS011;4379;59.744;18.206;2023-01-29T17:40:27;5.47;;;1.70;;
8683;SDS011;4379;59.744;18.206;2023-01-29T17:42:59;4.53;;;1.70;;
8683;SDS011;4379;59.744;18.206;2023-01-29T17:45:27;4.40;;;1.80;;
8683;SDS011;4379;59.744;18.206;2023-01-29T17:47:55;5.93;;;1.60;;
8683;SDS011;4379;59.744;18.206;2023-01-29T17:50:24;7.80;;;2.10;;
8683;SDS011;4379;59.744;18.206;2023-01-29T17:52:53;2.77;;;1.43;;
8683;SDS011;4379;59.744;18.206;2023-01-29T17:55:21;4.53;;;1.40;;
8683;SDS011;4379;59.744;18.206;2023-01-29T17:57:48;5.63;;;1.97;;